createdAt,value
2023-02-27T00:00:59.789Z,12.70
2023-02-27T00:03:29.305Z,15.37
2023-02-27T00:05:56.749Z,17.00
2023-02-27T00:08:24.801Z,12.43
2023-02-27T00:10:51.542Z,11.17
2023-02-27T00:13:18.528Z,15.97
2023-02-27T00:15:47.265Z,14.07
2023-02-27T00:18:14.573Z,18.70
2023-02-27T00:20:41.442Z,17.03
2023-02-27T00:23:10.544Z,31.17
2023-02-27T00:25:37.397Z,25.83
2023-02-27T00:28:04.989Z,29.40
2023-02-27T00:30:32.175Z,33.53
2023-02-27T00:32:59.911Z,37.77
2023-02-27T00:35:26.690Z,34.40
2023-02-27T00:37:53.960Z,31.50
2023-02-27T00:40:21.174Z,32.10
2023-02-27T00:42:49.384Z,45.47
2023-02-27T00:45:16.189Z,34.23
2023-02-27T00:47:43.340Z,39.90
2023-02-27T00:50:10.686Z,29.03
2023-02-27T00:52:37.847Z,28.23
2023-02-27T00:55:05.545Z,24.60
2023-02-27T00:57:33.182Z,24.63
2023-02-27T01:00:00.213Z,21.10
2023-02-27T01:02:27.564Z,21.50
2023-02-27T01:04:55.859Z,18.20
2023-02-27T01:07:24.425Z,20.40
2023-02-27T01:09:51.164Z,15.47
2023-02-27T01:12:18.272Z,13.97
2023-02-27T01:14:45.073Z,10.67
2023-02-27T01:17:12.326Z,13.67
2023-02-27T01:19:39.311Z,14.67
2023-02-27T01:22:06.643Z,14.97
2023-02-27T01:24:33.646Z,11.80
2023-02-27T01:27:00.737Z,9.70
2023-02-27T01:29:27.504Z,16.10
2023-02-27T01:31:54.850Z,15.20
2023-02-27T01:34:21.633Z,13.37
2023-02-27T01:36:48.721Z,12.33
2023-02-27T01:39:16.511Z,13.23
2023-02-27T01:41:43.719Z,13.17
2023-02-27T01:44:12.779Z,13.93
2023-02-27T01:46:40.858Z,13.87
2023-02-27T01:49:29.440Z,20.27
2023-02-27T01:52:08.565Z,15.67
2023-02-27T01:54:40.420Z,14.60
2023-02-27T01:57:09.686Z,14.43
2023-02-27T01:59:41.067Z,14.57
2023-02-27T02:02:16.585Z,11.00
2023-02-27T02:04:44.096Z,10.50
2023-02-27T02:07:15.321Z,13.50
2023-02-27T02:09:46.667Z,13.87
2023-02-27T02:12:16.252Z,13.07
2023-02-27T02:14:43.852Z,18.10
2023-02-27T02:17:18.432Z,16.70
2023-02-27T02:20:26.851Z,16.13
2023-02-27T02:23:35.933Z,12.53
2023-02-27T02:26:33.594Z,13.77
2023-02-27T02:29:17.049Z,17.27
2023-02-27T02:32:04.807Z,15.73
2023-02-27T02:34:54.187Z,14.40
2023-02-27T02:37:52.283Z,12.50
2023-02-27T02:40:35.167Z,13.07
2023-02-27T02:43:36.553Z,13.43
2023-02-27T02:46:14.387Z,8.50
2023-02-27T02:48:52.974Z,14.83
2023-02-27T02:51:35.862Z,7.00
2023-02-27T02:54:11.958Z,9.97
2023-02-27T02:56:46.978Z,9.57
2023-02-27T02:59:20.658Z,10.27
2023-02-27T03:01:58.302Z,10.87
2023-02-27T03:04:40.760Z,8.73
2023-02-27T03:07:22.465Z,9.40
2023-02-27T03:09:55.422Z,9.07
2023-02-27T03:12:24.422Z,13.97
2023-02-27T03:15:19.283Z,12.33
2023-02-27T03:18:04.879Z,12.00
2023-02-27T03:20:36.673Z,10.20
2023-02-27T03:23:10.411Z,9.50
2023-02-27T03:25:39.032Z,11.17
2023-02-27T03:28:11.245Z,9.17
2023-02-27T03:30:43.709Z,11.50
2023-02-27T03:33:18.827Z,10.03
2023-02-27T03:35:56.835Z,9.93
2023-02-27T03:38:36.244Z,7.90
2023-02-27T03:41:10.341Z,14.30
2023-02-27T03:44:16.157Z,8.53
2023-02-27T03:46:43.017Z,12.90
2023-02-27T03:49:10.286Z,11.70
2023-02-27T03:51:37.160Z,14.87
2023-02-27T03:54:15.605Z,13.03
2023-02-27T03:56:55.920Z,13.83
2023-02-27T03:59:26.981Z,12.63
2023-02-27T04:01:56.712Z,17.30
2023-02-27T04:04:25.123Z,23.70
2023-02-27T04:07:45.262Z,24.00
2023-02-27T04:10:23.641Z,25.83
2023-02-27T04:13:33.321Z,26.43
2023-02-27T04:16:25.301Z,31.97
2023-02-27T04:19:11.120Z,29.27
2023-02-27T04:21:50.370Z,31.83
2023-02-27T04:24:26.006Z,35.83
2023-02-27T04:27:09.002Z,34.67
2023-02-27T04:30:02.186Z,31.97
2023-02-27T04:32:41.423Z,33.63
2023-02-27T04:35:23.494Z,34.03
2023-02-27T04:37:59.055Z,29.03
2023-02-27T04:40:36.646Z,30.37
2023-02-27T04:43:05.958Z,27.57
2023-02-27T04:45:38.342Z,22.03
2023-02-27T04:48:14.173Z,22.23
2023-02-27T04:50:47.076Z,18.20
2023-02-27T04:53:21.885Z,21.10
2023-02-27T04:55:55.818Z,26.43
2023-02-27T04:58:36.444Z,26.50
2023-02-27T05:01:11.930Z,28.70
2023-02-27T05:03:47.305Z,29.23
2023-02-27T05:06:17.412Z,28.80
2023-02-27T05:09:08.573Z,34.73
2023-02-27T05:12:01.640Z,31.10
2023-02-27T05:14:34.801Z,26.93
2023-02-27T05:17:10.298Z,18.60
2023-02-27T05:19:40.675Z,17.90
2023-02-27T05:22:16.609Z,20.40
2023-02-27T05:25:06.297Z,15.83
2023-02-27T05:28:17.610Z,16.43
2023-02-27T05:31:01.264Z,14.40
2023-02-27T05:33:36.542Z,14.37
2023-02-27T05:36:16.881Z,18.10
2023-02-27T05:38:50.021Z,14.80
2023-02-27T05:41:28.643Z,15.30
2023-02-27T05:44:10.349Z,17.17
2023-02-27T05:46:42.877Z,16.07
2023-02-27T05:49:23.243Z,26.37
2023-02-27T05:51:53.490Z,29.50
2023-02-27T05:54:46.007Z,26.03
2023-02-27T05:57:24.173Z,26.53
2023-02-27T06:00:00.530Z,37.07
2023-02-27T06:02:27.805Z,35.80
2023-02-27T06:04:54.973Z,41.93
2023-02-27T06:07:23.479Z,49.07
2023-02-27T06:09:50.925Z,54.03
2023-02-27T06:12:17.951Z,61.23
2023-02-27T06:14:44.885Z,50.93
2023-02-27T06:17:12.089Z,58.90
2023-02-27T06:19:38.897Z,65.87
2023-02-27T06:22:05.918Z,67.80
2023-02-27T06:24:32.696Z,32.37
2023-02-27T06:26:59.823Z,17.67
2023-02-27T06:29:26.615Z,22.37
2023-02-27T06:31:54.002Z,18.20
2023-02-27T06:34:21.014Z,19.33
2023-02-27T06:36:48.688Z,25.53
2023-02-27T06:39:15.529Z,39.57
2023-02-27T06:41:42.532Z,26.80
2023-02-27T06:44:09.523Z,26.23
2023-02-27T06:46:36.568Z,33.03
2023-02-27T06:49:03.469Z,48.13
2023-02-27T06:51:30.616Z,42.90
2023-02-27T06:53:57.466Z,46.40
2023-02-27T06:56:24.541Z,42.83
2023-02-27T06:58:51.371Z,40.47
2023-02-27T07:01:18.584Z,55.67
2023-02-27T07:03:48.856Z,50.30
2023-02-27T07:06:18.006Z,47.87
2023-02-27T07:09:01.892Z,118.97
2023-02-27T07:11:32.657Z,62.40
2023-02-27T07:13:59.697Z,23.77
2023-02-27T07:16:27.100Z,40.17
2023-02-27T07:18:54.153Z,60.83
2023-02-27T07:21:21.110Z,59.47
2023-02-27T07:23:47.856Z,52.53
2023-02-27T07:26:14.906Z,49.83
2023-02-27T07:28:41.878Z,49.30
2023-02-27T07:31:08.989Z,44.73
2023-02-27T07:33:35.850Z,39.03
2023-02-27T07:36:02.905Z,34.07
2023-02-27T07:38:29.711Z,34.47
2023-02-27T07:40:58.638Z,30.27
2023-02-27T07:43:26.142Z,31.87
2023-02-27T07:45:53.291Z,28.63
2023-02-27T07:48:20.035Z,32.93
2023-02-27T07:50:47.116Z,27.47
2023-02-27T07:53:13.911Z,32.43
2023-02-27T07:55:41.146Z,33.70
2023-02-27T07:58:07.938Z,38.03
2023-02-27T08:00:35.039Z,40.80
2023-02-27T08:03:02.004Z,31.67
2023-02-27T08:05:29.329Z,31.03
2023-02-27T08:07:56.171Z,33.67
2023-02-27T08:10:23.297Z,31.13
2023-02-27T08:12:50.053Z,45.83
2023-02-27T08:15:17.576Z,33.77
2023-02-27T08:17:46.010Z,21.93
2023-02-27T08:20:14.906Z,27.90
2023-02-27T08:22:42.645Z,26.83
2023-02-27T08:25:11.881Z,26.87
2023-02-27T08:27:39.621Z,43.57
2023-02-27T08:30:10.072Z,39.20
2023-02-27T08:32:38.626Z,32.17
2023-02-27T08:35:06.319Z,31.63
2023-02-27T08:37:33.063Z,37.60
2023-02-27T08:40:00.125Z,33.07
2023-02-27T08:42:27.104Z,35.97
2023-02-27T08:44:54.187Z,31.73
2023-02-27T08:47:21.046Z,34.20
2023-02-27T08:49:48.040Z,29.37
2023-02-27T08:52:14.795Z,29.27
2023-02-27T08:54:41.847Z,24.10
2023-02-27T08:57:08.660Z,24.10
2023-02-27T08:59:35.761Z,23.23
2023-02-27T09:02:02.505Z,18.20
2023-02-27T09:04:29.628Z,15.10
2023-02-27T09:06:57.420Z,18.60
2023-02-27T09:09:24.509Z,17.33
2023-02-27T09:11:51.689Z,15.83
2023-02-27T09:14:19.188Z,14.60
2023-02-27T09:16:46.329Z,11.97
2023-02-27T09:19:14.484Z,13.83
2023-02-27T09:21:42.577Z,21.00
2023-02-27T09:24:19.053Z,15.67
2023-02-27T09:26:48.679Z,13.93
2023-02-27T09:29:15.864Z,17.07
2023-02-27T09:31:42.671Z,17.73
2023-02-27T09:34:09.759Z,14.00
2023-02-27T09:36:36.496Z,14.23
2023-02-27T09:39:03.722Z,13.27
2023-02-27T09:41:33.207Z,14.27
2023-02-27T09:44:01.641Z,13.30
2023-02-27T09:46:29.625Z,10.77
2023-02-27T09:49:00.035Z,18.27
2023-02-27T09:51:28.829Z,13.77
2023-02-27T09:54:00.022Z,8.53
2023-02-27T09:56:32.417Z,12.83
2023-02-27T09:59:29.143Z,13.40
2023-02-27T10:02:01.270Z,9.53
2023-02-27T10:04:43.572Z,12.80
2023-02-27T10:07:23.082Z,9.13
2023-02-27T10:09:59.359Z,10.30
2023-02-27T10:12:43.914Z,7.40
2023-02-27T10:15:39.217Z,9.33
2023-02-27T10:18:25.412Z,11.30
2023-02-27T10:20:57.014Z,6.77
2023-02-27T10:23:34.032Z,6.97
2023-02-27T10:26:02.332Z,8.13
2023-02-27T10:28:29.712Z,10.67
2023-02-27T10:30:59.800Z,9.13
2023-02-27T10:33:41.805Z,10.23
2023-02-27T10:36:18.044Z,7.83
2023-02-27T10:39:05.698Z,8.07
2023-02-27T10:41:33.123Z,7.83
2023-02-27T10:44:00.629Z,4.30
2023-02-27T10:46:30.418Z,6.63
2023-02-27T10:49:01.794Z,7.53
2023-02-27T10:51:32.650Z,5.20
2023-02-27T10:54:19.515Z,6.37
2023-02-27T10:56:50.966Z,4.40
2023-02-27T10:59:38.183Z,7.07
2023-02-27T11:02:17.479Z,6.83
2023-02-27T11:04:53.950Z,5.97
2023-02-27T11:07:36.147Z,9.00
2023-02-27T11:10:21.462Z,5.17
2023-02-27T11:13:03.558Z,7.17
2023-02-27T11:15:38.832Z,6.87
2023-02-27T11:18:29.393Z,11.40
2023-02-27T11:21:12.670Z,6.07
2023-02-27T11:24:03.245Z,2.73
2023-02-27T11:26:35.454Z,4.07
2023-02-27T11:29:20.206Z,7.27
2023-02-27T11:32:04.738Z,2.63
2023-02-27T11:34:38.446Z,4.83
2023-02-27T11:37:18.599Z,3.05
2023-02-27T11:39:52.144Z,3.80
2023-02-27T11:42:26.899Z,5.57
2023-02-27T11:44:57.931Z,8.03
2023-02-27T11:47:30.116Z,6.03
2023-02-27T11:50:38.821Z,5.63
2023-02-27T11:53:05.530Z,6.60
2023-02-27T11:55:33.014Z,5.23
2023-02-27T11:58:13.144Z,2.80
2023-02-27T12:00:47.520Z,3.27
2023-02-27T12:03:50.134Z,20.70
2023-02-27T12:06:22.109Z,10.67
2023-02-27T12:08:59.855Z,12.13
2023-02-27T12:11:32.976Z,10.20
2023-02-27T12:14:11.705Z,8.27
2023-02-27T12:16:46.610Z,14.37
2023-02-27T12:19:22.482Z,10.13
2023-02-27T12:21:58.094Z,7.97
2023-02-27T12:24:30.993Z,4.17
2023-02-27T12:27:18.305Z,6.20
2023-02-27T12:30:00.403Z,5.20
2023-02-27T12:33:03.390Z,5.83
2023-02-27T12:35:33.160Z,19.20
2023-02-27T12:38:01.580Z,11.83
2023-02-27T12:40:37.706Z,8.93
2023-02-27T12:43:13.686Z,7.77
2023-02-27T12:46:05.111Z,13.47
2023-02-27T12:48:50.654Z,12.37
2023-02-27T12:51:44.259Z,15.27
2023-02-27T12:54:39.728Z,8.97
2023-02-27T12:57:25.595Z,16.23
2023-02-27T13:00:09.363Z,10.63
2023-02-27T13:03:09.768Z,13.03
2023-02-27T13:05:55.590Z,7.17
2023-02-27T13:08:34.081Z,5.07
2023-02-27T13:11:14.464Z,4.13
2023-02-27T13:13:50.409Z,2.03
2023-02-27T13:16:22.749Z,7.33
2023-02-27T13:19:05.045Z,8.03
2023-02-27T13:21:43.822Z,7.90
2023-02-27T13:24:28.491Z,5.90
2023-02-27T13:27:02.402Z,6.33
2023-02-27T13:29:41.559Z,6.18
2023-02-27T13:32:43.666Z,6.20
2023-02-27T13:35:28.516Z,7.73
2023-02-27T13:38:01.540Z,4.67
2023-02-27T13:40:38.663Z,3.23
2023-02-27T13:43:28.664Z,3.47
2023-02-27T13:46:01.176Z,9.07
2023-02-27T13:48:34.204Z,13.23
2023-02-27T13:51:01.915Z,4.03
2023-02-27T13:53:29.832Z,5.87
2023-02-27T13:56:17.588Z,5.73
2023-02-27T13:58:45.116Z,4.83
2023-02-27T14:01:18.792Z,6.07
2023-02-27T14:03:54.589Z,6.80
2023-02-27T14:06:23.231Z,3.70
2023-02-27T14:08:53.119Z,3.77
2023-02-27T14:11:29.714Z,3.07
2023-02-27T14:13:58.857Z,4.05
2023-02-27T14:16:37.773Z,4.30
2023-02-27T14:19:19.849Z,3.13
2023-02-27T14:21:57.483Z,7.80
2023-02-27T14:24:49.759Z,5.37
2023-02-27T14:27:25.269Z,6.23
2023-02-27T14:29:57.391Z,2.70
2023-02-27T14:32:26.552Z,7.40
2023-02-27T14:34:54.737Z,3.63
2023-02-27T14:37:25.831Z,5.13
2023-02-27T14:39:55.752Z,4.53
2023-02-27T14:42:40.275Z,6.10
2023-02-27T14:45:18.988Z,6.13
2023-02-27T14:47:47.109Z,5.07
2023-02-27T14:50:24.325Z,6.17
2023-02-27T14:52:51.122Z,5.30
2023-02-27T14:55:30.358Z,7.20
2023-02-27T14:57:59.226Z,5.53
2023-02-27T15:00:33.075Z,7.63
2023-02-27T15:03:00.886Z,8.37
2023-02-27T15:05:34.731Z,6.70
2023-02-27T15:08:01.910Z,5.77
2023-02-27T15:10:33.547Z,6.90
2023-02-27T15:13:01.879Z,5.43
2023-02-27T15:15:29.888Z,5.77
2023-02-27T15:17:56.652Z,5.60
2023-02-27T15:20:30.171Z,4.90
2023-02-27T15:22:58.976Z,6.67
2023-02-27T15:25:38.410Z,9.80
2023-02-27T15:28:08.216Z,6.30
2023-02-27T15:30:35.263Z,6.20
2023-02-27T15:33:03.018Z,5.60
2023-02-27T15:35:36.617Z,4.30
2023-02-27T15:38:04.367Z,5.57
2023-02-27T15:40:34.161Z,5.83
2023-02-27T15:43:01.599Z,7.67
2023-02-27T15:45:34.842Z,5.50
2023-02-27T15:48:02.892Z,4.37
2023-02-27T15:50:42.455Z,8.60
2023-02-27T15:53:13.316Z,11.33
2023-02-27T15:55:42.948Z,7.33
2023-02-27T15:58:24.939Z,7.43
2023-02-27T16:01:13.523Z,8.23
2023-02-27T16:03:45.563Z,7.53
2023-02-27T16:06:19.290Z,8.13
2023-02-27T16:08:51.813Z,8.57
2023-02-27T16:11:28.593Z,6.53
2023-02-27T16:13:57.685Z,7.90
2023-02-27T16:16:24.702Z,7.07
2023-02-27T16:18:57.740Z,6.40
2023-02-27T16:21:31.216Z,8.17
2023-02-27T16:24:19.903Z,6.43
2023-02-27T16:26:52.721Z,7.77
2023-02-27T16:29:23.017Z,7.33
2023-02-27T16:31:57.478Z,8.63
2023-02-27T16:34:42.794Z,7.67
2023-02-27T16:37:23.452Z,7.40
2023-02-27T16:39:52.157Z,7.27
2023-02-27T16:42:19.397Z,9.13
2023-02-27T16:44:46.273Z,9.27
2023-02-27T16:47:13.377Z,7.50
2023-02-27T16:49:40.536Z,11.00
2023-02-27T16:52:11.030Z,15.73
2023-02-27T16:54:37.904Z,13.60
2023-02-27T16:57:05.107Z,18.13
2023-02-27T16:59:37.227Z,18.57
2023-02-27T17:02:07.683Z,20.10
2023-02-27T17:04:36.162Z,23.30
2023-02-27T17:07:06.337Z,19.33
2023-02-27T17:09:33.609Z,19.00
2023-02-27T17:12:00.569Z,18.73
2023-02-27T17:14:27.308Z,19.73
2023-02-27T17:16:54.407Z,25.80
2023-02-27T17:19:22.217Z,26.67
2023-02-27T17:21:50.577Z,24.53
2023-02-27T17:24:17.365Z,27.30
2023-02-27T17:26:44.430Z,33.93
2023-02-27T17:29:12.117Z,30.50
2023-02-27T17:31:39.279Z,36.70
2023-02-27T17:34:08.696Z,41.23
2023-02-27T17:36:36.264Z,30.40
2023-02-27T17:39:04.305Z,31.23
2023-02-27T17:41:32.781Z,32.23
2023-02-27T17:44:01.888Z,29.23
2023-02-27T17:46:30.854Z,36.30
2023-02-27T17:49:00.850Z,36.80
2023-02-27T17:51:30.001Z,37.90
2023-02-27T17:53:57.747Z,30.63
2023-02-27T17:56:24.739Z,31.97
2023-02-27T17:58:51.555Z,28.00
2023-02-27T18:01:25.665Z,33.17
2023-02-27T18:03:54.300Z,32.10
2023-02-27T18:06:22.275Z,24.63
2023-02-27T18:08:49.674Z,29.70
2023-02-27T18:11:19.860Z,31.03
2023-02-27T18:13:47.481Z,26.57
2023-02-27T18:16:15.401Z,24.70
2023-02-27T18:18:43.095Z,27.73
2023-02-27T18:21:16.785Z,31.10
2023-02-27T18:23:44.019Z,37.17
2023-02-27T18:26:28.468Z,47.00
2023-02-27T18:29:00.094Z,31.37
2023-02-27T18:31:33.805Z,34.90
2023-02-27T18:34:01.433Z,31.37
2023-02-27T18:36:29.937Z,26.73
2023-02-27T18:38:57.482Z,22.73
2023-02-27T18:41:24.570Z,25.70
2023-02-27T18:43:51.453Z,27.70
2023-02-27T18:46:18.694Z,29.20
2023-02-27T18:48:46.475Z,28.13
2023-02-27T18:51:15.468Z,26.90
2023-02-27T18:53:44.895Z,25.63
2023-02-27T18:56:13.130Z,28.80
2023-02-27T18:58:40.201Z,28.57
2023-02-27T19:01:07.980Z,25.60
2023-02-27T19:03:36.114Z,24.77
2023-02-27T19:06:03.570Z,26.13
2023-02-27T19:08:30.511Z,21.90
2023-02-27T19:10:58.591Z,21.50
2023-02-27T19:13:26.331Z,15.93
2023-02-27T19:15:53.905Z,20.93
2023-02-27T19:18:20.720Z,19.33
2023-02-27T19:20:48.093Z,21.30
2023-02-27T19:23:14.939Z,24.80
2023-02-27T19:25:42.534Z,18.47
2023-02-27T19:28:11.085Z,24.30
2023-02-27T19:30:39.280Z,19.03
2023-02-27T19:33:06.318Z,18.17
2023-02-27T19:35:33.500Z,24.60
2023-02-27T19:38:00.344Z,21.13
2023-02-27T19:40:28.594Z,19.07
2023-02-27T19:42:55.505Z,26.83
2023-02-27T19:45:23.406Z,20.77
2023-02-27T19:47:50.414Z,27.33
2023-02-27T19:50:17.760Z,29.77
2023-02-27T19:52:44.571Z,28.97
2023-02-27T19:55:11.969Z,24.07
2023-02-27T19:57:38.684Z,18.43
2023-02-27T20:00:07.619Z,24.90
2023-02-27T20:02:40.848Z,21.90
2023-02-27T20:05:09.157Z,20.77
2023-02-27T20:07:36.019Z,30.00
2023-02-27T20:10:03.580Z,28.83
2023-02-27T20:12:30.294Z,25.30
2023-02-27T20:14:57.386Z,21.67
2023-02-27T20:17:24.093Z,26.77
2023-02-27T20:19:51.196Z,41.63
2023-02-27T20:22:17.981Z,32.33
2023-02-27T20:24:45.052Z,30.07
2023-02-27T20:27:12.086Z,40.90
2023-02-27T20:29:40.424Z,99.17
2023-02-27T20:32:08.000Z,96.03
2023-02-27T20:34:35.101Z,61.27
2023-02-27T20:37:03.090Z,59.43
2023-02-27T20:39:30.342Z,49.10
2023-02-27T20:41:57.140Z,30.20
2023-02-27T20:44:24.238Z,37.47
2023-02-27T20:46:51.041Z,33.87
2023-02-27T20:49:18.349Z,35.03
2023-02-27T20:51:45.383Z,28.83
2023-02-27T20:54:16.494Z,36.17
2023-02-27T20:56:43.909Z,38.60
2023-02-27T20:59:16.059Z,39.27
2023-02-27T21:01:51.258Z,34.90
2023-02-27T21:04:42.300Z,35.30
2023-02-27T21:07:14.030Z,41.63
2023-02-27T21:09:41.213Z,42.07
2023-02-27T21:12:08.641Z,45.17
2023-02-27T21:14:36.413Z,45.93
2023-02-27T21:17:04.120Z,47.80
2023-02-27T21:19:31.418Z,54.97
2023-02-27T21:21:58.217Z,49.10
2023-02-27T21:24:25.749Z,54.33
2023-02-27T21:26:52.586Z,56.23
2023-02-27T21:29:21.699Z,62.03
2023-02-27T21:31:50.156Z,56.83
2023-02-27T21:34:20.987Z,62.10
2023-02-27T21:36:48.876Z,64.03
2023-02-27T21:39:19.596Z,66.17
2023-02-27T21:41:46.686Z,74.53
2023-02-27T21:44:16.784Z,62.93
2023-02-27T21:46:43.675Z,65.47
2023-02-27T21:49:17.112Z,66.27
2023-02-27T21:51:44.147Z,65.03
2023-02-27T21:54:12.873Z,69.70
2023-02-27T21:56:40.747Z,65.47
2023-02-27T21:59:08.064Z,57.30
2023-02-27T22:01:35.827Z,50.50
2023-02-27T22:04:03.040Z,55.03
2023-02-27T22:06:32.310Z,45.17
2023-02-27T22:09:01.795Z,43.53
2023-02-27T22:11:29.691Z,48.63
2023-02-27T22:13:57.164Z,46.00
2023-02-27T22:16:24.403Z,43.63
2023-02-27T22:18:51.818Z,36.97
2023-02-27T22:21:24.140Z,40.67
2023-02-27T22:23:52.015Z,43.63
2023-02-27T22:26:25.619Z,46.43
2023-02-27T22:28:52.908Z,35.73
2023-02-27T22:31:25.668Z,40.17
2023-02-27T22:33:54.762Z,37.13
2023-02-27T22:36:24.050Z,38.17
2023-02-27T22:38:51.890Z,36.57
2023-02-27T22:41:33.514Z,37.03
2023-02-27T22:44:01.975Z,34.90
2023-02-27T22:46:28.801Z,36.63
2023-02-27T22:48:57.185Z,39.07
2023-02-27T22:51:25.400Z,35.10
2023-02-27T22:53:55.458Z,43.73
2023-02-27T22:56:22.952Z,41.50
2023-02-27T22:58:50.383Z,37.47
2023-02-27T23:01:22.856Z,44.10
2023-02-27T23:03:52.216Z,35.57
2023-02-27T23:06:24.983Z,32.80
2023-02-27T23:08:52.579Z,37.60
2023-02-27T23:11:20.164Z,41.87
2023-02-27T23:13:47.868Z,37.10
2023-02-27T23:16:14.793Z,41.17
2023-02-27T23:18:47.972Z,38.37
2023-02-27T23:21:16.552Z,38.90
2023-02-27T23:23:44.014Z,36.87
2023-02-27T23:26:11.495Z,33.40
2023-02-27T23:28:38.729Z,35.90
2023-02-27T23:31:06.871Z,38.67
2023-02-27T23:33:34.389Z,35.23
2023-02-27T23:36:01.625Z,35.07
2023-02-27T23:38:29.236Z,36.83
2023-02-27T23:40:56.018Z,43.20
2023-02-27T23:43:42.629Z,34.33
2023-02-27T23:46:12.334Z,30.53
2023-02-27T23:48:39.792Z,45.17
2023-02-27T23:51:08.142Z,40.30
2023-02-27T23:53:36.718Z,43.73
2023-02-27T23:56:15.990Z,43.50
2023-02-27T23:58:43.853Z,38.17
